createdAt,value
2023-03-05T00:00:22.098Z,94.55
2023-03-05T00:02:55.246Z,94.19
2023-03-05T00:05:25.793Z,94.15
2023-03-05T00:07:56.608Z,94.00
2023-03-05T00:10:27.202Z,93.66
2023-03-05T00:12:57.808Z,93.84
2023-03-05T00:15:28.398Z,93.44
2023-03-05T00:18:01.522Z,93.08
2023-03-05T00:20:32.150Z,93.01
2023-03-05T00:23:02.841Z,92.61
2023-03-05T00:25:33.426Z,92.33
2023-03-05T00:28:03.966Z,91.06
2023-03-05T00:30:35.342Z,90.71
2023-03-05T00:33:08.809Z,91.29
2023-03-05T00:35:43.393Z,92.58
2023-03-05T00:38:14.738Z,92.73
2023-03-05T00:40:45.342Z,89.21
2023-03-05T00:43:16.217Z,88.69
2023-03-05T00:45:46.724Z,95.19
2023-03-05T00:48:19.950Z,96.60
2023-03-05T00:50:50.474Z,95.84
2023-03-05T00:53:21.217Z,94.58
2023-03-05T00:55:51.917Z,88.23
2023-03-05T00:58:23.910Z,84.91
2023-03-05T01:00:54.429Z,85.47
2023-03-05T01:03:27.641Z,86.65
2023-03-05T01:05:59.576Z,87.71
2023-03-05T01:08:30.843Z,90.47
2023-03-05T01:11:01.463Z,92.46
2023-03-05T01:13:32.276Z,92.80
2023-03-05T01:16:03.597Z,94.02
2023-03-05T01:18:37.651Z,94.99
2023-03-05T01:21:09.051Z,95.68
2023-03-05T01:23:40.350Z,98.54
2023-03-05T01:26:11.018Z,100.00
2023-03-05T01:28:41.570Z,100.00
2023-03-05T01:31:12.876Z,100.00
2023-03-05T01:33:46.140Z,100.00
2023-03-05T01:36:18.588Z,100.00
2023-03-05T01:38:50.704Z,97.47
2023-03-05T01:41:22.240Z,95.36
2023-03-05T01:43:53.569Z,94.66
2023-03-05T01:46:36.741Z,95.86
2023-03-05T01:49:19.329Z,100.00
2023-03-05T01:51:58.017Z,100.00
2023-03-05T01:54:32.164Z,100.00
2023-03-05T01:57:07.962Z,100.00
2023-03-05T01:59:41.084Z,100.00
2023-03-05T02:02:12.283Z,100.00
2023-03-05T02:04:49.324Z,100.00
2023-03-05T02:07:20.652Z,100.00
2023-03-05T02:09:51.928Z,100.00
2023-03-05T02:12:22.642Z,100.00
2023-03-05T02:15:15.004Z,100.00
2023-03-05T02:17:45.505Z,100.00
2023-03-05T02:20:20.849Z,100.00
2023-03-05T02:22:54.171Z,100.00
2023-03-05T02:25:27.728Z,99.91
2023-03-05T02:28:03.122Z,99.18
2023-03-05T02:30:33.816Z,98.96
2023-03-05T02:33:04.502Z,98.55
2023-03-05T02:35:36.041Z,97.92
2023-03-05T02:38:09.983Z,97.66
2023-03-05T02:40:41.586Z,97.26
2023-03-05T02:43:12.986Z,96.50
2023-03-05T02:45:44.484Z,96.13
2023-03-05T02:48:15.049Z,95.83
2023-03-05T02:50:46.724Z,95.20
2023-03-05T02:53:19.810Z,94.62
2023-03-05T02:55:50.925Z,94.32
2023-03-05T02:58:21.739Z,93.97
2023-03-05T03:00:52.392Z,93.83
2023-03-05T03:03:23.009Z,93.19
2023-03-05T03:05:53.883Z,93.22
2023-03-05T03:08:27.142Z,93.34
2023-03-05T03:10:58.113Z,93.74
2023-03-05T03:13:28.743Z,94.09
2023-03-05T03:16:05.780Z,94.50
2023-03-05T03:18:36.871Z,94.44
2023-03-05T03:21:09.356Z,94.84
2023-03-05T03:23:42.441Z,94.03
2023-03-05T03:26:12.957Z,94.86
2023-03-05T03:28:43.895Z,94.35
2023-03-05T03:31:14.780Z,95.01
2023-03-05T03:33:45.534Z,93.93
2023-03-05T03:36:16.312Z,95.12
2023-03-05T03:38:49.507Z,93.90
2023-03-05T03:41:20.113Z,93.61
2023-03-05T03:43:50.724Z,91.95
2023-03-05T03:46:21.454Z,90.48
2023-03-05T03:48:53.606Z,92.43
2023-03-05T03:51:24.155Z,95.84
2023-03-05T03:53:58.059Z,96.08
2023-03-05T03:56:28.661Z,96.42
2023-03-05T03:59:00.220Z,95.24
2023-03-05T04:01:30.823Z,93.42
2023-03-05T04:04:01.363Z,96.77
2023-03-05T04:06:31.977Z,95.96
2023-03-05T04:09:05.126Z,94.24
2023-03-05T04:11:35.679Z,92.99
2023-03-05T04:14:06.533Z,98.17
2023-03-05T04:16:37.176Z,97.44
2023-03-05T04:19:07.740Z,98.26
2023-03-05T04:21:38.332Z,96.91
2023-03-05T04:24:12.233Z,93.93
2023-03-05T04:26:42.766Z,90.36
2023-03-05T04:29:13.234Z,88.26
2023-03-05T04:31:43.742Z,93.07
2023-03-05T04:34:14.378Z,91.29
2023-03-05T04:36:45.005Z,92.56
2023-03-05T04:39:21.153Z,90.79
2023-03-05T04:41:51.690Z,90.21
2023-03-05T04:44:23.500Z,92.42
2023-03-05T04:46:54.123Z,89.49
2023-03-05T04:49:24.676Z,88.83
2023-03-05T04:51:55.224Z,87.57
2023-03-05T04:54:28.386Z,87.15
2023-03-05T04:56:58.927Z,91.86
2023-03-05T04:59:29.491Z,90.88
2023-03-05T05:02:00.184Z,89.26
2023-03-05T05:04:30.756Z,93.15
2023-03-05T05:07:02.568Z,91.64
2023-03-05T05:09:35.827Z,92.76
2023-03-05T05:12:06.594Z,91.09
2023-03-05T05:14:37.537Z,89.10
2023-03-05T05:17:08.214Z,87.60
2023-03-05T05:19:39.121Z,87.28
2023-03-05T05:22:09.784Z,91.88
2023-03-05T05:24:43.050Z,90.79
2023-03-05T05:27:13.741Z,92.42
2023-03-05T05:29:46.589Z,91.05
2023-03-05T05:32:17.260Z,89.54
2023-03-05T05:34:47.796Z,88.03
2023-03-05T05:37:18.308Z,91.21
2023-03-05T05:39:51.590Z,93.17
2023-03-05T05:42:23.046Z,93.06
2023-03-05T05:44:55.617Z,93.22
2023-03-05T05:47:26.373Z,90.53
2023-03-05T05:49:56.877Z,89.46
2023-03-05T05:52:27.620Z,87.91
2023-03-05T05:55:00.767Z,93.65
2023-03-05T05:57:31.366Z,92.81
2023-03-05T06:00:01.829Z,93.42
2023-03-05T06:02:42.401Z,91.58
2023-03-05T06:05:16.570Z,89.41
2023-03-05T06:07:47.064Z,87.81
2023-03-05T06:10:22.673Z,89.78
2023-03-05T06:12:52.801Z,92.28
2023-03-05T06:15:23.296Z,90.99
2023-03-05T06:17:54.872Z,91.18
2023-03-05T06:20:25.422Z,87.08
2023-03-05T06:22:56.020Z,85.88
2023-03-05T06:25:29.201Z,84.04
2023-03-05T06:27:59.964Z,88.65
2023-03-05T06:30:30.494Z,86.56
2023-03-05T06:33:01.154Z,83.92
2023-03-05T06:35:31.718Z,83.11
2023-03-05T06:38:02.254Z,86.79
2023-03-05T06:40:35.423Z,82.59
2023-03-05T06:43:05.966Z,84.75
2023-03-05T06:45:36.534Z,80.15
2023-03-05T06:48:07.626Z,77.62
2023-03-05T06:50:38.581Z,79.21
2023-03-05T06:53:09.182Z,78.92
2023-03-05T06:55:42.642Z,74.38
2023-03-05T06:58:13.256Z,73.48
2023-03-05T07:00:43.736Z,77.26
2023-03-05T07:03:14.345Z,76.56
2023-03-05T07:05:45.598Z,76.37
2023-03-05T07:08:16.045Z,75.46
2023-03-05T07:10:49.157Z,71.87
2023-03-05T07:13:19.614Z,71.79
2023-03-05T07:15:50.112Z,71.15
2023-03-05T07:18:20.717Z,73.33
2023-03-05T07:20:51.394Z,72.04
2023-03-05T07:23:21.777Z,73.50
2023-03-05T07:25:54.833Z,70.61
2023-03-05T07:28:25.417Z,68.82
2023-03-05T07:31:00.588Z,71.46
2023-03-05T07:33:32.245Z,68.19
2023-03-05T07:36:04.632Z,66.74
2023-03-05T07:38:35.362Z,68.94
2023-03-05T07:41:11.059Z,68.32
2023-03-05T07:43:41.747Z,65.16
2023-03-05T07:46:15.698Z,64.16
2023-03-05T07:48:46.839Z,65.57
2023-03-05T07:51:19.321Z,67.59
2023-03-05T07:53:51.594Z,65.92
2023-03-05T07:56:30.093Z,65.70
2023-03-05T07:59:00.661Z,63.72
2023-03-05T08:01:31.494Z,64.04
2023-03-05T08:04:02.269Z,62.14
2023-03-05T08:06:33.391Z,61.16
2023-03-05T08:09:04.125Z,59.60
2023-03-05T08:11:37.305Z,61.93
2023-03-05T08:14:07.834Z,60.37
2023-03-05T08:16:38.861Z,60.92
2023-03-05T08:19:09.700Z,60.00
2023-03-05T08:21:40.650Z,57.88
2023-03-05T08:24:11.981Z,58.99
2023-03-05T08:26:45.629Z,58.27
2023-03-05T08:29:16.138Z,59.63
2023-03-05T08:31:49.062Z,57.15
2023-03-05T08:34:19.553Z,55.86
2023-03-05T08:36:50.699Z,56.13
2023-03-05T08:39:21.985Z,56.43
2023-03-05T08:41:55.338Z,55.48
2023-03-05T08:44:25.759Z,57.68
2023-03-05T08:46:56.485Z,55.81
2023-03-05T08:49:27.512Z,54.07
2023-03-05T08:51:58.058Z,55.17
2023-03-05T08:54:28.562Z,53.74
2023-03-05T08:57:01.827Z,52.58
2023-03-05T08:59:32.616Z,52.66
2023-03-05T09:02:04.254Z,53.72
2023-03-05T09:04:34.845Z,52.27
2023-03-05T09:07:05.405Z,51.65
2023-03-05T09:09:36.238Z,53.71
2023-03-05T09:12:12.123Z,50.76
2023-03-05T09:14:43.056Z,50.93
2023-03-05T09:17:13.578Z,51.25
2023-03-05T09:19:44.247Z,50.98
2023-03-05T09:22:15.513Z,52.65
2023-03-05T09:24:46.034Z,50.20
2023-03-05T09:27:19.223Z,50.95
2023-03-05T09:29:49.830Z,49.32
2023-03-05T09:32:20.430Z,48.20
2023-03-05T09:34:51.003Z,48.88
2023-03-05T09:37:22.339Z,47.90
2023-03-05T09:39:54.238Z,48.63
2023-03-05T09:43:01.453Z,47.73
2023-03-05T09:45:38.631Z,47.98
2023-03-05T09:48:16.634Z,47.02
2023-03-05T09:50:51.374Z,47.87
2023-03-05T09:53:33.350Z,46.50
2023-03-05T09:56:09.074Z,48.33
2023-03-05T09:58:44.334Z,46.70
2023-03-05T10:01:18.695Z,49.12
2023-03-05T10:03:59.985Z,45.79
2023-03-05T10:06:34.653Z,47.41
2023-03-05T10:09:10.202Z,45.01
2023-03-05T10:11:45.867Z,44.84
2023-03-05T10:14:26.861Z,46.08
2023-03-05T10:17:06.373Z,45.62
2023-03-05T10:20:11.776Z,45.94
2023-03-05T10:22:54.843Z,45.66
2023-03-05T10:25:29.716Z,44.39
2023-03-05T10:28:07.556Z,45.14
2023-03-05T10:31:00.074Z,44.40
2023-03-05T10:33:38.435Z,44.40
2023-03-05T10:36:33.288Z,46.10
2023-03-05T10:39:42.555Z,45.03
2023-03-05T10:42:25.301Z,45.38
2023-03-05T10:44:57.882Z,44.36
2023-03-05T10:47:38.915Z,44.67
2023-03-05T10:50:19.553Z,44.04
2023-03-05T10:52:55.720Z,44.11
2023-03-05T10:55:26.620Z,45.42
2023-03-05T10:57:57.231Z,44.53
2023-03-05T11:00:29.812Z,45.75
2023-03-05T11:03:05.053Z,44.83
2023-03-05T11:05:44.211Z,44.95
2023-03-05T11:08:27.963Z,42.64
2023-03-05T11:11:14.545Z,43.75
2023-03-05T11:13:54.916Z,42.56
2023-03-05T11:16:28.236Z,43.29
2023-03-05T11:19:30.161Z,42.24
2023-03-05T11:22:17.706Z,41.90
2023-03-05T11:25:05.711Z,43.11
2023-03-05T11:27:41.958Z,41.62
2023-03-05T11:30:23.185Z,40.76
2023-03-05T11:32:53.707Z,41.34
2023-03-05T11:35:37.619Z,40.57
2023-03-05T11:38:18.228Z,40.54
2023-03-05T11:40:49.987Z,39.49
2023-03-05T11:43:22.596Z,39.69
2023-03-05T11:45:56.795Z,39.76
2023-03-05T11:48:31.650Z,39.28
2023-03-05T11:51:10.864Z,40.19
2023-03-05T11:53:42.423Z,40.70
2023-03-05T11:56:21.946Z,41.06
2023-03-05T11:58:57.874Z,40.55
2023-03-05T12:01:31.338Z,41.20
2023-03-05T12:04:03.156Z,40.02
2023-03-05T12:06:41.123Z,40.48
2023-03-05T12:09:16.904Z,41.74
2023-03-05T12:11:48.179Z,41.49
2023-03-05T12:14:25.386Z,41.05
2023-03-05T12:17:01.650Z,41.86
2023-03-05T12:19:50.787Z,42.58
2023-03-05T12:22:26.359Z,41.47
2023-03-05T12:24:57.000Z,42.64
2023-03-05T12:27:40.387Z,41.56
2023-03-05T12:30:47.429Z,42.22
2023-03-05T12:33:34.764Z,42.17
2023-03-05T12:36:35.183Z,42.72
2023-03-05T12:39:52.968Z,43.24
2023-03-05T12:42:49.090Z,43.91
2023-03-05T12:45:37.658Z,43.24
2023-03-05T12:48:45.550Z,42.96
2023-03-05T12:51:31.995Z,42.08
2023-03-05T12:54:27.847Z,42.88
2023-03-05T12:57:00.042Z,43.20
2023-03-05T12:59:41.221Z,42.80
2023-03-05T13:02:24.606Z,42.97
2023-03-05T13:05:00.454Z,42.91
2023-03-05T13:07:34.254Z,43.94
2023-03-05T13:10:07.800Z,42.68
2023-03-05T13:12:39.732Z,42.36
2023-03-05T13:15:17.620Z,42.19
2023-03-05T13:17:57.494Z,43.44
2023-03-05T13:20:37.972Z,42.59
2023-03-05T13:23:21.284Z,42.81
2023-03-05T13:26:15.656Z,43.59
2023-03-05T13:28:47.358Z,44.07
2023-03-05T13:31:21.459Z,43.92
2023-03-05T13:33:57.250Z,44.41
2023-03-05T13:36:29.585Z,44.74
2023-03-05T13:39:00.810Z,44.26
2023-03-05T13:41:33.995Z,44.74
2023-03-05T13:44:06.216Z,45.38
2023-03-05T13:46:38.826Z,45.82
2023-03-05T13:49:24.645Z,45.54
2023-03-05T13:51:57.611Z,46.80
2023-03-05T13:54:31.044Z,46.26
2023-03-05T13:57:06.671Z,45.87
2023-03-05T13:59:39.432Z,45.94
2023-03-05T14:02:20.962Z,44.87
2023-03-05T14:04:53.407Z,44.83
2023-03-05T14:07:33.138Z,43.97
2023-03-05T14:10:05.819Z,43.48
2023-03-05T14:12:42.972Z,44.93
2023-03-05T14:15:25.084Z,44.43
2023-03-05T14:17:56.586Z,43.94
2023-03-05T14:20:30.451Z,43.24
2023-03-05T14:23:03.261Z,42.76
2023-03-05T14:25:38.317Z,43.70
2023-03-05T14:28:24.367Z,44.02
2023-03-05T14:30:57.668Z,43.74
2023-03-05T14:33:31.683Z,44.44
2023-03-05T14:36:04.274Z,45.21
2023-03-05T14:38:36.597Z,44.50
2023-03-05T14:41:23.509Z,44.89
2023-03-05T14:43:56.603Z,43.78
2023-03-05T14:46:27.481Z,44.74
2023-03-05T14:48:58.341Z,44.33
2023-03-05T14:51:29.538Z,44.80
2023-03-05T14:54:00.209Z,45.55
2023-03-05T14:56:32.014Z,44.54
2023-03-05T14:59:05.275Z,44.63
2023-03-05T15:01:35.980Z,44.86
2023-03-05T15:04:06.563Z,45.21
2023-03-05T15:06:40.197Z,46.19
2023-03-05T15:09:11.207Z,44.65
2023-03-05T15:11:41.638Z,45.06
2023-03-05T15:14:15.393Z,45.50
2023-03-05T15:16:49.077Z,45.23
2023-03-05T15:19:20.639Z,44.42
2023-03-05T15:21:52.033Z,45.07
2023-03-05T15:24:22.581Z,46.07
2023-03-05T15:26:53.100Z,45.39
2023-03-05T15:29:26.198Z,45.73
2023-03-05T15:31:56.832Z,45.49
2023-03-05T15:34:27.482Z,45.14
2023-03-05T15:36:58.597Z,45.44
2023-03-05T15:39:29.239Z,46.37
2023-03-05T15:42:00.278Z,46.78
2023-03-05T15:44:33.430Z,45.69
2023-03-05T15:47:04.003Z,45.91
2023-03-05T15:49:34.565Z,45.74
2023-03-05T15:52:05.085Z,46.09
2023-03-05T15:54:35.707Z,45.96
2023-03-05T15:57:06.580Z,46.32
2023-03-05T15:59:40.002Z,45.97
2023-03-05T16:02:10.920Z,46.32
2023-03-05T16:04:41.487Z,45.89
2023-03-05T16:07:12.963Z,46.40
2023-03-05T16:09:48.277Z,48.80
2023-03-05T16:12:23.272Z,50.74
2023-03-05T16:14:56.541Z,52.47
2023-03-05T16:17:27.763Z,54.79
2023-03-05T16:19:59.368Z,56.32
2023-03-05T16:22:30.865Z,58.78
2023-03-05T16:25:01.620Z,59.59
2023-03-05T16:27:33.960Z,60.25
2023-03-05T16:30:07.987Z,61.94
2023-03-05T16:32:40.211Z,61.65
2023-03-05T16:35:12.518Z,61.57
2023-03-05T16:37:43.568Z,61.89
2023-03-05T16:40:15.860Z,61.68
2023-03-05T16:42:46.812Z,61.05
2023-03-05T16:45:20.245Z,60.34
2023-03-05T16:47:52.630Z,59.70
2023-03-05T16:50:23.726Z,59.18
2023-03-05T16:52:54.506Z,58.39
2023-03-05T16:55:25.187Z,58.00
2023-03-05T16:57:56.105Z,57.83
2023-03-05T17:00:29.717Z,57.70
2023-03-05T17:03:00.242Z,57.40
2023-03-05T17:05:30.919Z,57.64
2023-03-05T17:08:02.418Z,57.24
2023-03-05T17:10:33.350Z,56.46
2023-03-05T17:13:04.007Z,55.92
2023-03-05T17:15:37.387Z,55.75
2023-03-05T17:18:08.782Z,55.91
2023-03-05T17:20:39.748Z,55.65
2023-03-05T17:23:11.329Z,55.32
2023-03-05T17:25:42.279Z,55.49
2023-03-05T17:28:13.590Z,55.62
2023-03-05T17:30:47.367Z,55.33
2023-03-05T17:33:18.109Z,55.14
2023-03-05T17:35:50.254Z,55.15
2023-03-05T17:38:21.203Z,53.95
2023-03-05T17:40:52.482Z,54.96
2023-03-05T17:43:23.236Z,55.09
2023-03-05T17:45:59.989Z,55.62
2023-03-05T17:48:31.615Z,56.15
2023-03-05T17:51:02.293Z,56.72
2023-03-05T17:53:32.973Z,57.27
2023-03-05T17:56:03.659Z,56.43
2023-03-05T17:58:34.622Z,56.99
2023-03-05T18:01:09.145Z,57.38
2023-03-05T18:03:40.222Z,55.98
2023-03-05T18:06:11.047Z,57.25
2023-03-05T18:08:41.774Z,56.08
2023-03-05T18:11:12.492Z,55.81
2023-03-05T18:13:43.521Z,55.94
2023-03-05T18:16:18.498Z,55.53
2023-03-05T18:18:49.140Z,53.88
2023-03-05T18:21:22.999Z,54.73
2023-03-05T18:23:54.419Z,55.32
2023-03-05T18:26:25.456Z,55.69
2023-03-05T18:28:56.490Z,55.60
2023-03-05T18:31:29.858Z,56.16
2023-03-05T18:34:00.587Z,56.76
2023-03-05T18:36:31.333Z,55.63
2023-03-05T18:39:02.023Z,55.70
2023-03-05T18:41:33.890Z,56.66
2023-03-05T18:44:05.127Z,55.90
2023-03-05T18:46:38.613Z,56.77
2023-03-05T18:49:09.698Z,56.87
2023-03-05T18:51:40.506Z,57.17
2023-03-05T18:54:11.412Z,55.80
2023-03-05T18:56:42.478Z,53.48
2023-03-05T18:59:13.143Z,51.13
2023-03-05T19:01:46.634Z,50.24
2023-03-05T19:04:17.271Z,48.89
2023-03-05T19:06:48.349Z,47.27
2023-03-05T19:09:46.160Z,47.51
2023-03-05T19:12:19.739Z,47.11
2023-03-05T19:14:50.348Z,46.35
2023-03-05T19:17:23.630Z,46.38
2023-03-05T19:19:54.847Z,46.19
2023-03-05T19:22:27.079Z,46.36
2023-03-05T19:24:57.738Z,46.79
2023-03-05T19:27:29.318Z,46.63
2023-03-05T19:30:00.397Z,46.39
2023-03-05T19:32:33.683Z,46.01
2023-03-05T19:35:04.856Z,46.36
2023-03-05T19:37:35.411Z,46.36
2023-03-05T19:40:06.330Z,46.39
2023-03-05T19:42:38.292Z,46.44
2023-03-05T19:45:10.333Z,45.73
2023-03-05T19:47:43.529Z,48.43
2023-03-05T19:50:17.849Z,52.37
2023-03-05T19:52:48.501Z,57.09
2023-03-05T19:55:19.222Z,61.24
2023-03-05T19:57:49.895Z,61.28
2023-03-05T20:00:22.133Z,60.66
2023-03-05T20:02:55.309Z,60.56
2023-03-05T20:05:26.792Z,59.74
2023-03-05T20:07:57.529Z,59.14
2023-03-05T20:10:28.105Z,58.43
2023-03-05T20:12:58.949Z,58.55
2023-03-05T20:15:29.958Z,58.86
2023-03-05T20:18:03.185Z,58.71
2023-03-05T20:20:33.935Z,59.10
2023-03-05T20:23:04.604Z,58.45
2023-03-05T20:25:35.308Z,58.04
2023-03-05T20:28:05.832Z,58.60
2023-03-05T20:30:36.440Z,59.09
2023-03-05T20:33:09.702Z,58.71
2023-03-05T20:35:40.504Z,59.95
2023-03-05T20:38:30.429Z,60.80
2023-03-05T20:41:02.649Z,61.70
2023-03-05T20:43:35.262Z,61.34
2023-03-05T20:46:06.874Z,62.18
2023-03-05T20:48:40.260Z,61.97
2023-03-05T20:51:15.669Z,61.02
2023-03-05T20:53:46.480Z,60.27
2023-03-05T20:56:17.090Z,61.07
2023-03-05T20:58:47.936Z,61.06
2023-03-05T21:01:18.780Z,61.19
2023-03-05T21:03:53.940Z,60.71
2023-03-05T21:06:24.525Z,61.81
2023-03-05T21:08:55.341Z,62.03
2023-03-05T21:11:26.562Z,62.45
2023-03-05T21:13:57.274Z,61.60
2023-03-05T21:16:30.033Z,61.49
2023-03-05T21:19:03.741Z,63.50
2023-03-05T21:21:34.419Z,63.03
2023-03-05T21:24:05.266Z,64.38
2023-03-05T21:26:36.313Z,63.71
2023-03-05T21:29:06.938Z,60.39
2023-03-05T21:31:37.742Z,60.63
2023-03-05T21:34:11.153Z,68.86
2023-03-05T21:36:41.668Z,66.88
2023-03-05T21:39:12.337Z,66.77
2023-03-05T21:41:46.401Z,62.28
2023-03-05T21:44:17.931Z,62.57
2023-03-05T21:46:48.406Z,64.01
2023-03-05T21:49:21.607Z,67.81
2023-03-05T21:52:09.403Z,69.75
2023-03-05T21:54:40.556Z,71.18
2023-03-05T21:57:13.074Z,72.74
2023-03-05T21:59:44.434Z,72.41
2023-03-05T22:02:15.407Z,74.82
2023-03-05T22:04:48.870Z,75.89
2023-03-05T22:07:20.888Z,76.55
2023-03-05T22:09:56.566Z,78.34
2023-03-05T22:13:12.498Z,77.49
2023-03-05T22:15:47.504Z,75.25
2023-03-05T22:18:19.987Z,74.88
2023-03-05T22:20:53.418Z,74.25
2023-03-05T22:23:27.403Z,75.89
2023-03-05T22:26:01.800Z,76.22
2023-03-05T22:28:32.795Z,83.52
2023-03-05T22:31:03.620Z,81.65
2023-03-05T22:33:34.921Z,78.70
2023-03-05T22:36:14.994Z,76.48
2023-03-05T22:38:45.792Z,75.45
2023-03-05T22:41:19.905Z,74.75
2023-03-05T22:43:51.648Z,76.13
2023-03-05T22:46:24.226Z,76.23
2023-03-05T22:48:55.225Z,76.36
2023-03-05T22:51:28.450Z,76.15
2023-03-05T22:53:59.298Z,76.59
2023-03-05T22:56:29.799Z,76.94
2023-03-05T22:59:00.560Z,79.42
2023-03-05T23:01:31.133Z,81.62
2023-03-05T23:04:47.829Z,82.65
2023-03-05T23:07:23.500Z,83.08
2023-03-05T23:09:56.063Z,81.90
2023-03-05T23:12:28.196Z,80.83
2023-03-05T23:14:58.952Z,79.36
2023-03-05T23:17:29.917Z,78.70
2023-03-05T23:20:00.400Z,78.83
2023-03-05T23:22:33.794Z,79.05
2023-03-05T23:25:04.526Z,80.97
2023-03-05T23:27:35.298Z,82.59
2023-03-05T23:30:23.242Z,83.30
2023-03-05T23:32:56.026Z,84.04
2023-03-05T23:35:28.847Z,84.36
2023-03-05T23:38:03.644Z,83.27
2023-03-05T23:40:35.840Z,81.92
2023-03-05T23:43:07.292Z,80.46
2023-03-05T23:45:38.264Z,79.93
2023-03-05T23:48:09.312Z,79.77
2023-03-05T23:50:43.235Z,81.32
2023-03-05T23:53:20.259Z,83.17
2023-03-05T23:55:51.381Z,88.87
2023-03-05T23:58:22.710Z,87.41
